createdAt,value
2017-12-12T00:00:20.893Z,7.40
2017-12-12T00:02:49.007Z,7.50
2017-12-12T00:05:17.158Z,7.40
2017-12-12T00:07:45.286Z,7.60
2017-12-12T00:10:14.270Z,7.70
2017-12-12T00:12:42.391Z,7.80
2017-12-12T00:15:10.515Z,7.80
2017-12-12T00:17:38.679Z,7.90
2017-12-12T00:20:06.821Z,7.90
2017-12-12T00:22:42.657Z,7.90
2017-12-12T00:25:10.863Z,7.90
2017-12-12T00:27:39.760Z,7.90
2017-12-12T00:30:08.640Z,7.90
2017-12-12T00:32:36.778Z,7.90
2017-12-12T00:35:04.897Z,7.90
2017-12-12T00:37:33.810Z,8.00
2017-12-12T00:40:02.175Z,8.00
2017-12-12T00:42:31.091Z,7.90
2017-12-12T00:44:59.437Z,7.90
2017-12-12T00:47:28.341Z,8.10
2017-12-12T00:57:24.634Z,8.00
2017-12-12T00:59:52.758Z,8.00
2017-12-12T01:02:21.686Z,8.10
2017-12-12T01:04:50.563Z,8.20
2017-12-12T01:12:18.196Z,8.10
2017-12-12T01:14:46.311Z,8.10
2017-12-12T01:17:14.505Z,8.10
2017-12-12T01:19:43.389Z,8.10
2017-12-12T01:22:11.566Z,8.10
2017-12-12T01:24:40.830Z,8.00
2017-12-12T01:27:08.970Z,8.00
2017-12-12T01:29:37.089Z,8.10
2017-12-12T01:32:05.359Z,8.10
2017-12-12T01:34:33.462Z,8.20
2017-12-12T01:37:02.514Z,8.10
2017-12-12T01:39:31.446Z,8.10
2017-12-12T01:42:00.341Z,8.20
2017-12-12T01:46:58.684Z,8.10
2017-12-12T01:49:26.803Z,8.10
2017-12-12T01:51:55.214Z,8.10
2017-12-12T01:54:23.342Z,8.00
2017-12-12T01:56:51.494Z,8.00
2017-12-12T01:59:19.618Z,7.90
2017-12-12T02:01:48.511Z,7.80
2017-12-12T02:04:17.414Z,7.80
2017-12-12T02:06:45.526Z,7.80
2017-12-12T02:09:13.662Z,7.70
2017-12-12T02:11:41.817Z,7.50
2017-12-12T02:14:09.973Z,7.60
2017-12-12T02:16:39.766Z,7.60
2017-12-12T02:19:07.990Z,7.60
2017-12-12T02:21:36.117Z,7.70
2017-12-12T02:24:04.422Z,7.70
2017-12-12T02:26:33.305Z,7.70
2017-12-12T02:29:01.446Z,7.70
2017-12-12T02:31:30.707Z,7.90
2017-12-12T02:33:58.886Z,7.80
2017-12-12T02:36:29.226Z,7.70
2017-12-12T02:41:26.748Z,7.60
2017-12-12T02:43:54.902Z,7.70
2017-12-12T02:46:23.425Z,7.80
2017-12-12T02:48:52.342Z,7.60
2017-12-12T02:51:20.462Z,7.60
2017-12-12T02:53:48.588Z,7.70
2017-12-12T02:56:16.715Z,7.70
2017-12-12T02:58:44.895Z,7.70
2017-12-12T03:01:13.762Z,7.60
2017-12-12T03:03:41.926Z,7.70
2017-12-12T03:06:10.050Z,7.60
2017-12-12T03:08:38.185Z,7.50
2017-12-12T03:11:06.344Z,7.50
2017-12-12T03:13:34.493Z,7.70
2017-12-12T03:16:02.596Z,7.70
2017-12-12T03:18:31.957Z,7.60
2017-12-12T03:21:00.188Z,7.60
2017-12-12T03:23:28.326Z,7.60
2017-12-12T03:25:56.440Z,7.60
2017-12-12T03:28:24.566Z,7.70
2017-12-12T03:30:52.699Z,7.60
2017-12-12T03:33:21.586Z,7.70
2017-12-12T03:35:50.498Z,7.70
2017-12-12T03:38:18.614Z,7.70
2017-12-12T03:40:46.742Z,7.70
2017-12-12T03:43:14.970Z,7.70
2017-12-12T03:45:43.125Z,7.70
2017-12-12T03:48:11.242Z,7.60
2017-12-12T03:50:40.186Z,7.50
2017-12-12T03:53:08.306Z,7.50
2017-12-12T03:55:37.223Z,7.20
2017-12-12T03:58:05.359Z,7.10
2017-12-12T04:00:33.502Z,7.00
2017-12-12T04:03:01.634Z,6.90
2017-12-12T04:05:29.797Z,6.60
2017-12-12T04:07:58.684Z,6.20
2017-12-12T04:10:27.594Z,6.00
2017-12-12T04:12:55.734Z,6.00
2017-12-12T04:15:23.900Z,5.90
2017-12-12T04:17:53.228Z,5.90
2017-12-12T04:20:22.134Z,5.80
2017-12-12T04:22:50.283Z,5.80
2017-12-12T04:25:19.233Z,5.60
2017-12-12T04:27:47.337Z,5.60
2017-12-12T04:30:15.486Z,5.50
2017-12-12T04:32:43.626Z,5.40
2017-12-12T04:35:11.774Z,5.40
2017-12-12T04:37:40.656Z,5.10
2017-12-12T04:40:08.846Z,5.10
2017-12-12T04:42:37.713Z,5.00
2017-12-12T04:45:05.845Z,5.00
2017-12-12T04:47:33.968Z,5.00
2017-12-12T04:50:03.440Z,5.00
2017-12-12T04:52:31.593Z,4.90
2017-12-12T04:54:59.727Z,4.90
2017-12-12T04:57:28.657Z,4.90
2017-12-12T04:59:56.773Z,4.90
2017-12-12T05:02:24.906Z,4.80
2017-12-12T05:04:53.024Z,4.80
2017-12-12T05:07:22.881Z,4.80
2017-12-12T05:09:51.003Z,4.80
2017-12-12T05:12:19.145Z,4.80
2017-12-12T05:14:47.290Z,4.70
2017-12-12T05:17:15.438Z,4.80
2017-12-12T05:19:43.566Z,4.90
2017-12-12T05:22:11.750Z,4.90
2017-12-12T05:24:39.874Z,4.90
2017-12-12T05:27:11.430Z,4.70
2017-12-12T05:29:39.562Z,4.70
2017-12-12T05:32:07.749Z,4.70
2017-12-12T05:34:36.885Z,4.70
2017-12-12T05:37:05.953Z,4.60
2017-12-12T05:39:34.070Z,4.60
2017-12-12T05:42:02.201Z,4.50
2017-12-12T05:44:30.316Z,4.60
2017-12-12T05:46:58.449Z,4.60
2017-12-12T05:49:26.571Z,4.70
2017-12-12T05:51:54.708Z,4.60
2017-12-12T05:54:23.576Z,4.60
2017-12-12T05:56:51.727Z,4.60
2017-12-12T05:59:19.839Z,4.70
2017-12-12T06:01:47.982Z,4.70
2017-12-12T06:04:16.100Z,4.70
2017-12-12T06:06:45.014Z,4.70
2017-12-12T06:09:13.141Z,4.70
2017-12-12T06:11:41.294Z,4.50
2017-12-12T06:14:09.403Z,4.60
2017-12-12T06:16:38.338Z,4.70
2017-12-12T06:19:06.466Z,4.70
2017-12-12T06:21:35.378Z,4.60
2017-12-12T06:24:03.521Z,4.60
2017-12-12T06:26:31.633Z,4.50
2017-12-12T06:28:59.778Z,4.60
2017-12-12T06:31:28.667Z,4.70
2017-12-12T06:33:56.798Z,4.70
2017-12-12T06:36:24.918Z,4.50
2017-12-12T06:38:53.824Z,4.50
2017-12-12T06:41:21.950Z,4.50
2017-12-12T06:43:50.093Z,4.50
2017-12-12T06:46:18.303Z,4.50
2017-12-12T06:48:46.446Z,4.60
2017-12-12T06:51:14.562Z,4.60
2017-12-12T06:53:42.730Z,4.70
2017-12-12T06:56:10.845Z,4.60
2017-12-12T06:58:38.990Z,4.60
2017-12-12T07:01:07.876Z,4.60
2017-12-12T07:03:36.019Z,4.60
2017-12-12T07:06:04.285Z,4.60
2017-12-12T07:08:32.422Z,4.60
2017-12-12T07:11:00.555Z,4.50
2017-12-12T07:13:28.758Z,4.70
2017-12-12T07:15:57.642Z,4.70
2017-12-12T07:18:25.785Z,4.70
2017-12-12T07:20:53.906Z,4.80
2017-12-12T07:23:22.806Z,4.80
2017-12-12T07:25:50.933Z,4.80
2017-12-12T07:28:19.111Z,4.80
2017-12-12T07:30:47.242Z,4.80
2017-12-12T07:33:15.386Z,4.70
2017-12-12T07:35:44.284Z,4.90
2017-12-12T07:38:12.437Z,4.80
2017-12-12T07:40:41.323Z,4.80
2017-12-12T07:43:10.434Z,4.90
2017-12-12T07:45:39.317Z,4.90
2017-12-12T07:48:08.226Z,4.80
2017-12-12T07:50:36.340Z,4.80
2017-12-12T07:53:04.478Z,4.80
2017-12-12T07:55:32.600Z,4.80
2017-12-12T07:58:00.763Z,4.70
2017-12-12T08:00:29.038Z,4.70
2017-12-12T08:02:57.222Z,4.80
2017-12-12T08:05:25.359Z,4.80
2017-12-12T08:07:53.473Z,4.70
2017-12-12T08:10:21.821Z,4.80
2017-12-12T08:12:49.946Z,4.70
2017-12-12T08:15:18.086Z,4.70
2017-12-12T08:17:46.208Z,4.80
2017-12-12T08:20:15.118Z,4.90
2017-12-12T08:22:43.224Z,4.90
2017-12-12T08:25:11.380Z,4.80
2017-12-12T08:27:39.518Z,4.80
2017-12-12T08:30:08.440Z,4.90
2017-12-12T08:32:36.570Z,4.90
2017-12-12T08:35:04.754Z,4.90
2017-12-12T08:37:33.634Z,4.80
2017-12-12T08:40:02.546Z,4.80
2017-12-12T08:42:30.697Z,4.80
2017-12-12T08:44:58.834Z,4.90
2017-12-12T08:47:26.980Z,4.80
2017-12-12T08:49:55.125Z,4.70
2017-12-12T08:52:24.047Z,4.80
2017-12-12T08:54:52.199Z,4.80
2017-12-12T08:57:20.354Z,4.80
2017-12-12T08:59:48.811Z,4.80
2017-12-12T09:02:17.382Z,4.70
2017-12-12T09:04:45.526Z,4.80
2017-12-12T09:07:13.684Z,4.70
2017-12-12T09:09:41.904Z,4.80
2017-12-12T09:12:10.034Z,4.70
2017-12-12T09:14:38.405Z,4.80
2017-12-12T09:17:07.286Z,5.00
2017-12-12T09:19:36.199Z,5.10
2017-12-12T09:22:04.330Z,5.10
2017-12-12T09:24:32.470Z,5.20
2017-12-12T09:27:00.624Z,5.30
2017-12-12T09:29:28.998Z,5.30
2017-12-12T09:31:57.147Z,5.30
2017-12-12T09:34:26.035Z,5.30
2017-12-12T09:36:54.173Z,5.30
2017-12-12T09:39:22.693Z,5.30
2017-12-12T09:41:50.868Z,5.20
2017-12-12T09:44:19.768Z,5.20
2017-12-12T09:46:48.714Z,5.10
2017-12-12T09:49:16.835Z,5.10
2017-12-12T09:51:45.737Z,5.00
2017-12-12T09:54:13.857Z,5.00
2017-12-12T09:56:42.015Z,4.90
2017-12-12T09:59:10.129Z,5.00
2017-12-12T10:01:38.273Z,4.90
2017-12-12T10:04:06.394Z,4.90
2017-12-12T10:06:35.302Z,4.90
2017-12-12T10:09:03.938Z,4.80
2017-12-12T10:11:32.074Z,4.70
2017-12-12T10:14:00.203Z,4.70
2017-12-12T10:16:28.387Z,4.90
2017-12-12T10:18:57.286Z,4.90
2017-12-12T10:21:25.467Z,4.90
2017-12-12T10:23:53.589Z,4.90
2017-12-12T10:26:21.767Z,4.90
2017-12-12T10:28:49.936Z,4.90
2017-12-12T10:31:18.047Z,5.00
2017-12-12T10:33:46.930Z,5.20
2017-12-12T10:36:15.835Z,5.30
2017-12-12T10:38:43.967Z,5.30
2017-12-12T10:41:12.084Z,5.20
2017-12-12T10:43:40.232Z,5.10
2017-12-12T10:46:08.526Z,5.10
2017-12-12T10:48:37.438Z,5.30
2017-12-12T10:51:05.583Z,5.30
2017-12-12T10:53:34.494Z,5.40
2017-12-12T10:56:03.008Z,5.40
2017-12-12T10:58:31.235Z,5.30
2017-12-12T11:01:00.128Z,5.30
2017-12-12T11:03:29.034Z,5.40
2017-12-12T11:05:57.151Z,5.40
2017-12-12T11:08:25.327Z,5.40
2017-12-12T11:10:53.450Z,5.30
2017-12-12T11:13:21.615Z,5.50
2017-12-12T11:15:50.503Z,5.60
2017-12-12T11:18:19.401Z,5.70
2017-12-12T11:20:47.521Z,5.70
2017-12-12T11:23:15.678Z,5.50
2017-12-12T11:25:43.804Z,5.50
2017-12-12T11:28:12.724Z,5.70
2017-12-12T11:30:40.834Z,5.70
2017-12-12T11:33:09.630Z,5.90
2017-12-12T11:35:37.751Z,5.90
2017-12-12T11:38:05.894Z,5.80
2017-12-12T11:40:34.430Z,5.70
2017-12-12T11:43:02.568Z,5.70
2017-12-12T11:45:31.455Z,5.80
2017-12-12T11:48:00.358Z,5.90
2017-12-12T11:50:29.560Z,6.10
2017-12-12T11:52:58.886Z,6.10
2017-12-12T11:55:27.034Z,6.00
2017-12-12T11:57:55.178Z,6.10
2017-12-12T12:00:23.293Z,6.10
2017-12-12T12:02:51.415Z,6.00
2017-12-12T12:05:19.550Z,6.00
2017-12-12T12:07:47.679Z,6.10
2017-12-12T12:10:15.835Z,5.90
2017-12-12T12:12:44.758Z,5.70
2017-12-12T12:15:14.025Z,5.70
2017-12-12T12:17:42.155Z,5.70
2017-12-12T12:20:10.289Z,5.70
2017-12-12T12:22:38.413Z,5.70
2017-12-12T12:25:07.385Z,5.80
2017-12-12T12:27:35.513Z,5.80
2017-12-12T12:30:04.625Z,5.80
2017-12-12T12:32:32.730Z,5.60
2017-12-12T12:35:01.034Z,5.70
2017-12-12T12:37:29.142Z,5.70
2017-12-12T12:39:57.333Z,5.60
2017-12-12T12:42:26.264Z,5.50
2017-12-12T12:44:54.484Z,5.50
2017-12-12T12:47:22.605Z,5.40
2017-12-12T12:49:50.738Z,5.30
2017-12-12T12:52:19.635Z,5.20
2017-12-12T12:54:48.612Z,5.10
2017-12-12T12:57:16.718Z,5.10
2017-12-12T12:59:44.859Z,5.10
2017-12-12T13:02:13.053Z,5.10
2017-12-12T13:04:42.009Z,5.20
2017-12-12T13:07:10.231Z,5.10
2017-12-12T13:09:38.375Z,5.10
2017-12-12T13:12:07.269Z,5.30
2017-12-12T13:14:36.143Z,5.40
2017-12-12T13:17:04.257Z,5.40
2017-12-12T13:19:32.385Z,5.30
2017-12-12T13:22:00.515Z,5.30
2017-12-12T13:24:28.678Z,5.20
2017-12-12T13:26:56.814Z,5.20
2017-12-12T13:29:24.927Z,5.30
2017-12-12T13:31:53.061Z,5.30
2017-12-12T13:34:21.193Z,5.50
2017-12-12T13:36:49.370Z,5.40
2017-12-12T13:39:17.554Z,5.40
2017-12-12T13:41:45.760Z,5.30
2017-12-12T13:44:13.886Z,5.30
2017-12-12T13:46:42.148Z,5.30
2017-12-12T13:49:10.394Z,5.40
2017-12-12T13:51:39.516Z,5.20
2017-12-12T13:54:07.654Z,5.20
2017-12-12T13:56:36.579Z,5.20
2017-12-12T13:59:04.699Z,5.20
2017-12-12T14:01:32.858Z,5.10
2017-12-12T14:04:00.974Z,5.10
2017-12-12T14:06:30.302Z,5.10
2017-12-12T14:08:58.462Z,5.10
2017-12-12T14:11:27.375Z,5.10
2017-12-12T14:13:55.512Z,5.00
2017-12-12T14:16:24.445Z,5.00
2017-12-12T14:18:52.637Z,5.00
2017-12-12T14:21:20.778Z,5.10
2017-12-12T14:23:48.897Z,5.00
2017-12-12T14:26:17.035Z,5.00
2017-12-12T14:28:45.149Z,5.10
2017-12-12T14:31:13.321Z,5.00
2017-12-12T14:33:41.450Z,5.10
2017-12-12T14:36:09.612Z,5.10
2017-12-12T14:38:37.717Z,5.00
2017-12-12T14:41:05.970Z,5.10
2017-12-12T14:43:34.102Z,5.00
2017-12-12T14:46:03.016Z,5.10
2017-12-12T14:48:31.900Z,5.10
2017-12-12T14:51:00.818Z,5.10
2017-12-12T14:53:28.938Z,5.10
2017-12-12T14:55:57.073Z,5.00
2017-12-12T14:58:25.184Z,5.00
2017-12-12T15:00:53.338Z,4.90
2017-12-12T15:03:21.458Z,5.00
2017-12-12T15:05:50.366Z,5.10
2017-12-12T15:08:18.504Z,5.10
2017-12-12T15:10:46.644Z,5.00
2017-12-12T15:13:14.819Z,5.00
2017-12-12T15:15:42.930Z,5.00
2017-12-12T15:18:11.065Z,4.90
2017-12-12T15:20:39.197Z,4.90
2017-12-12T15:23:08.104Z,4.90
2017-12-12T15:25:36.212Z,4.90
2017-12-12T15:28:04.350Z,4.80
2017-12-12T15:30:32.478Z,5.00
2017-12-12T15:33:00.644Z,5.00
2017-12-12T15:35:28.883Z,4.90
2017-12-12T15:37:57.019Z,4.90
2017-12-12T15:40:25.150Z,4.90
2017-12-12T15:42:53.298Z,4.80
2017-12-12T15:45:21.429Z,4.60
2017-12-12T15:47:49.580Z,4.70
2017-12-12T15:50:17.710Z,4.70
2017-12-12T15:52:45.872Z,4.60
2017-12-12T15:55:14.001Z,4.60
2017-12-12T15:57:42.165Z,4.70
2017-12-12T16:00:10.277Z,4.70
2017-12-12T16:02:40.127Z,4.70
2017-12-12T16:05:08.242Z,4.70
2017-12-12T16:07:36.384Z,4.70
2017-12-12T16:10:04.505Z,4.60
2017-12-12T16:12:32.933Z,4.50
2017-12-12T16:15:01.059Z,4.60
2017-12-12T16:17:29.970Z,4.80
2017-12-12T16:19:58.086Z,4.80
2017-12-12T16:22:26.749Z,4.70
2017-12-12T16:24:54.898Z,4.60
2017-12-12T16:27:23.055Z,4.80
2017-12-12T16:29:51.978Z,4.70
2017-12-12T16:32:20.107Z,4.70
2017-12-12T16:34:48.253Z,4.70
2017-12-12T16:37:17.302Z,4.70
2017-12-12T16:39:46.230Z,4.70
2017-12-12T16:42:14.379Z,4.60
2017-12-12T16:44:42.548Z,4.70
2017-12-12T16:47:10.674Z,4.80
2017-12-12T16:49:38.826Z,4.90
2017-12-12T16:52:06.954Z,4.70
2017-12-12T16:54:35.866Z,4.70
2017-12-12T16:57:04.225Z,4.70
2017-12-12T16:59:33.187Z,4.60
2017-12-12T17:02:01.382Z,4.50
2017-12-12T17:04:30.455Z,4.80
2017-12-12T17:06:58.622Z,4.80
2017-12-12T17:09:26.785Z,4.80
2017-12-12T17:11:54.976Z,4.80
2017-12-12T17:14:23.211Z,4.70
2017-12-12T17:16:51.410Z,4.70
2017-12-12T17:19:19.932Z,4.80
2017-12-12T17:21:48.237Z,4.70
2017-12-12T17:24:16.381Z,4.80
2017-12-12T17:26:45.320Z,4.80
2017-12-12T17:29:13.460Z,4.80
2017-12-12T17:31:42.382Z,4.80
2017-12-12T17:34:10.510Z,4.80
2017-12-12T17:36:38.658Z,4.80
2017-12-12T17:39:06.789Z,4.70
2017-12-12T17:41:34.959Z,4.70
2017-12-12T17:44:03.082Z,4.70
2017-12-12T17:46:31.231Z,4.90
2017-12-12T17:48:59.370Z,4.90
2017-12-12T17:51:27.532Z,4.90
2017-12-12T17:53:56.463Z,4.90
2017-12-12T17:56:24.631Z,4.90
2017-12-12T17:58:53.020Z,4.90
2017-12-12T18:01:21.386Z,5.00
2017-12-12T18:03:49.517Z,5.00
2017-12-12T18:06:17.663Z,5.10
2017-12-12T18:08:45.806Z,5.10
2017-12-12T18:11:13.955Z,5.00
2017-12-12T18:13:43.061Z,5.00
2017-12-12T18:16:11.317Z,5.00
2017-12-12T18:18:40.239Z,4.90
2017-12-12T18:21:08.377Z,4.90
2017-12-12T18:23:36.522Z,4.90
2017-12-12T18:26:05.673Z,4.90
2017-12-12T18:28:33.856Z,5.00
2017-12-12T18:31:02.315Z,5.00
2017-12-12T18:33:30.534Z,5.00
2017-12-12T18:35:58.661Z,5.00
2017-12-12T18:38:27.569Z,5.00
2017-12-12T18:40:55.696Z,4.90
2017-12-12T18:43:23.869Z,4.90
2017-12-12T18:45:52.025Z,4.90
2017-12-12T18:48:20.174Z,4.90
2017-12-12T18:50:48.549Z,5.00
2017-12-12T18:53:16.694Z,4.90
2017-12-12T18:55:45.583Z,4.80
2017-12-12T18:58:14.495Z,4.70
2017-12-12T19:00:42.635Z,4.70
2017-12-12T19:03:10.786Z,4.60
2017-12-12T19:05:38.896Z,4.70
2017-12-12T19:08:07.843Z,5.10
2017-12-12T19:10:36.018Z,5.00
2017-12-12T19:13:04.982Z,5.10
2017-12-12T19:15:33.105Z,5.10
2017-12-12T19:18:01.318Z,5.00
2017-12-12T19:20:29.459Z,5.10
2017-12-12T19:22:57.603Z,5.00
2017-12-12T19:25:25.746Z,4.80
2017-12-12T19:27:53.857Z,5.00
2017-12-12T19:30:22.001Z,4.80
2017-12-12T19:32:50.135Z,4.90
2017-12-12T19:35:18.302Z,4.90
2017-12-12T19:37:47.205Z,4.90
2017-12-12T19:40:16.131Z,5.00
2017-12-12T19:42:44.258Z,5.00
2017-12-12T19:45:12.408Z,4.90
2017-12-12T19:47:40.546Z,4.90
2017-12-12T19:50:08.722Z,5.00
2017-12-12T19:52:36.887Z,4.90
2017-12-12T19:55:05.217Z,5.00
2017-12-12T19:57:33.352Z,4.90
2017-12-12T20:00:01.501Z,4.70
2017-12-12T20:02:44.128Z,4.70
2017-12-12T20:05:12.425Z,4.60
2017-12-12T20:07:40.548Z,4.60
2017-12-12T20:10:08.763Z,4.60
2017-12-12T20:12:36.890Z,4.50
2017-12-12T20:15:05.044Z,4.60
2017-12-12T20:17:33.178Z,4.70
2017-12-12T20:20:01.354Z,4.60
2017-12-12T20:22:29.482Z,4.40
2017-12-12T20:24:57.659Z,4.40
2017-12-12T20:27:25.953Z,4.40
2017-12-12T20:29:55.578Z,4.30
2017-12-12T20:32:24.546Z,4.50
2017-12-12T20:34:52.666Z,4.40
2017-12-12T20:37:20.862Z,4.50
2017-12-12T20:39:48.981Z,4.60
2017-12-12T20:42:17.567Z,4.60
2017-12-12T20:44:45.962Z,4.70
2017-12-12T20:47:14.127Z,4.70
2017-12-12T20:49:42.246Z,4.70
2017-12-12T20:52:10.801Z,4.70
2017-12-12T20:54:39.766Z,4.90
2017-12-12T20:57:08.678Z,4.70
2017-12-12T20:59:36.819Z,4.70
2017-12-12T21:02:05.919Z,4.90
2017-12-12T21:04:34.834Z,4.80
2017-12-12T21:07:08.646Z,4.80
2017-12-12T21:09:36.825Z,4.80
2017-12-12T21:12:05.066Z,5.00
2017-12-12T21:14:33.324Z,4.90
2017-12-12T21:17:01.470Z,4.80
2017-12-12T21:19:29.593Z,4.80
2017-12-12T21:21:58.533Z,4.70
2017-12-12T21:24:26.653Z,4.70
2017-12-12T21:26:55.565Z,4.70
2017-12-12T21:29:23.687Z,4.70
2017-12-12T21:31:51.826Z,4.70
2017-12-12T21:34:19.948Z,4.70
2017-12-12T21:36:48.175Z,4.70
2017-12-12T21:39:16.298Z,4.60
2017-12-12T21:41:44.442Z,4.80
2017-12-12T21:44:12.650Z,5.00
2017-12-12T21:46:41.000Z,5.10
2017-12-12T21:49:09.116Z,5.10
2017-12-12T21:51:38.000Z,5.00
2017-12-12T21:54:06.968Z,5.00
2017-12-12T21:56:35.207Z,5.00
2017-12-12T21:59:03.439Z,4.90
2017-12-12T22:01:32.429Z,4.70
2017-12-12T22:04:00.608Z,4.60
2017-12-12T22:06:28.797Z,4.50
2017-12-12T22:08:57.809Z,4.50
2017-12-12T22:11:25.929Z,4.50
2017-12-12T22:13:54.241Z,4.50
2017-12-12T22:16:23.127Z,4.70
2017-12-12T22:18:52.039Z,4.60
2017-12-12T22:21:20.190Z,4.60
2017-12-12T22:23:49.105Z,4.20
2017-12-12T22:26:17.437Z,4.20
2017-12-12T22:28:45.918Z,4.10
2017-12-12T22:31:14.543Z,4.00
2017-12-12T22:33:43.551Z,4.00
2017-12-12T22:36:11.679Z,3.90
2017-12-12T22:38:40.612Z,3.70
2017-12-12T22:41:08.735Z,3.70
2017-12-12T22:43:36.886Z,3.60
2017-12-12T22:46:05.006Z,3.60
2017-12-12T22:48:33.909Z,3.40
2017-12-12T22:51:02.030Z,3.40
2017-12-12T22:53:30.169Z,3.50
2017-12-12T22:55:58.290Z,3.60
2017-12-12T22:58:26.551Z,3.50
2017-12-12T23:00:58.609Z,3.40
2017-12-12T23:03:26.750Z,3.60
2017-12-12T23:05:54.861Z,3.60
2017-12-12T23:08:22.995Z,3.60
2017-12-12T23:10:51.149Z,3.50
2017-12-12T23:13:20.038Z,3.10
2017-12-12T23:15:48.959Z,3.20
2017-12-12T23:18:17.120Z,3.20
2017-12-12T23:20:46.886Z,3.20
2017-12-12T23:23:15.005Z,3.20
2017-12-12T23:25:43.150Z,3.30
2017-12-12T23:28:11.271Z,3.40
2017-12-12T23:30:39.410Z,3.40
2017-12-12T23:33:08.306Z,3.40
2017-12-12T23:35:37.209Z,3.40
2017-12-12T23:38:05.328Z,3.40
2017-12-12T23:40:33.477Z,3.30
2017-12-12T23:43:01.791Z,3.30
2017-12-12T23:45:30.832Z,3.20
2017-12-12T23:47:58.944Z,3.10
2017-12-12T23:50:27.087Z,3.20
2017-12-12T23:52:55.202Z,3.10
2017-12-12T23:55:23.360Z,3.20
2017-12-12T23:57:51.482Z,3.20
